Time;durP1;ratioP1;P1;durP2;ratioP2;P2;SDS_P1;SDS_P2;PMS_P1;PMS_P2;Temp;Humidity;BMP_temperature;BMP_pressure;BME280_temperature;BME280_humidity;BME280_pressure;Samples;Min_cycle;Max_cycle;Signal;HPM_P1;HPM_P2
2024/04/22 00:01:28;;;;;;;2.35;1.60;;;23.50;49.10;;;;;;6568818;26;83024;-61
2024/04/22 00:04:29;;;;;;;2.33;1.70;;;23.50;49.20;;;;;;6608526;26;79422;-60
2024/04/22 00:07:29;;;;;;;2.40;1.90;;;23.50;49.40;;;;;;6627919;26;79095;-64
2024/04/22 00:10:30;;;;;;;3.20;1.92;;;23.50;48.40;;;;;;6563159;26;79075;-64
2024/04/22 00:13:30;;;;;;;1.88;1.67;;;23.50;48.50;;;;;;6556180;26;79396;-63
2024/04/22 00:16:31;;;;;;;1.42;1.30;;;23.40;48.60;;;;;;6604277;26;80481;-64
2024/04/22 00:19:31;;;;;;;2.33;1.80;;;23.40;48.90;;;;;;6580086;26;80061;-64
2024/04/22 00:22:32;;;;;;;2.47;1.80;;;23.50;48.40;;;;;;6586598;26;79674;-63
2024/04/22 00:25:32;;;;;;;1.95;1.52;;;23.50;48.20;;;;;;6603319;26;79729;-67
2024/04/22 00:28:33;;;;;;;3.25;1.83;;;23.40;48.30;;;;;;6539059;26;78948;-67
2024/04/22 00:31:33;;;;;;;2.58;1.80;;;23.50;48.20;;;;;;6552717;26;79271;-66
2024/04/22 00:34:34;;;;;;;2.58;2.10;;;23.40;48.10;;;;;;6539696;26;84946;-68
2024/04/22 00:37:34;;;;;;;2.60;1.65;;;23.40;47.90;;;;;;6545512;26;79131;-67
2024/04/22 00:40:35;;;;;;;2.40;2.05;;;23.40;47.90;;;;;;6562528;26;79217;-68
2024/04/22 00:43:35;;;;;;;2.83;1.98;;;23.40;47.90;;;;;;6539365;26;79317;-69
2024/04/22 00:46:36;;;;;;;2.08;1.77;;;23.40;47.90;;;;;;6562445;26;79043;-67
2024/04/22 00:49:36;;;;;;;2.78;1.85;;;23.40;47.90;;;;;;6561706;26;79324;-67
2024/04/22 00:52:37;;;;;;;2.35;1.58;;;23.40;48.00;;;;;;6541084;26;78785;-67
2024/04/22 00:55:37;;;;;;;2.13;1.77;;;23.40;48.20;;;;;;6539701;26;78849;-67
2024/04/22 00:58:38;;;;;;;2.95;1.38;;;23.40;48.10;;;;;;6562023;26;80641;-68
2024/04/22 01:01:38;;;;;;;1.88;1.60;;;23.50;48.60;;;;;;6560209;26;78856;-64
2024/04/22 01:04:39;;;;;;;1.35;1.08;;;23.40;48.30;;;;;;6559355;26;80461;-64
2024/04/22 01:07:39;;;;;;;2.53;1.23;;;23.40;48.60;;;;;;6557684;26;79164;-64
2024/04/22 01:10:40;;;;;;;2.15;1.40;;;23.40;49.10;;;;;;6564335;26;79376;-62
2024/04/22 01:13:40;;;;;;;2.67;1.77;;;23.40;47.60;;;;;;6566430;26;81335;-63
2024/04/22 01:16:41;;;;;;;1.90;1.60;;;23.40;47.90;;;;;;6571258;26;80826;-63
2024/04/22 01:19:41;;;;;;;1.90;1.40;;;23.40;47.90;;;;;;6569600;26;79171;-63
2024/04/22 01:22:42;;;;;;;2.75;1.80;;;23.40;47.60;;;;;;6585278;26;84129;-63
2024/04/22 01:25:42;;;;;;;2.33;1.55;;;23.40;47.60;;;;;;6546352;26;80590;-66
2024/04/22 01:28:43;;;;;;;2.75;1.60;;;23.40;47.50;;;;;;6539242;26;79209;-66
2024/04/22 01:31:43;;;;;;;1.92;1.48;;;23.40;47.40;;;;;;6555409;26;79457;-67
2024/04/22 01:34:44;;;;;;;1.58;1.20;;;23.40;47.30;;;;;;6568109;26;78978;-65
2024/04/22 01:37:44;;;;;;;3.72;1.63;;;23.40;47.40;;;;;;6542095;26;80106;-64
2024/04/22 01:40:45;;;;;;;1.73;1.40;;;23.40;47.30;;;;;;6581461;26;79910;-61
2024/04/22 01:43:45;;;;;;;2.30;1.48;;;23.50;47.10;;;;;;6539302;26;79267;-62
2024/04/22 01:46:46;;;;;;;3.63;2.20;;;23.40;47.10;;;;;;6545735;26;79121;-62
2024/04/22 01:49:47;;;;;;;1.80;1.42;;;23.40;47.00;;;;;;6602020;26;80113;-61
2024/04/22 01:52:47;;;;;;;3.28;1.52;;;23.40;46.80;;;;;;6600163;26;79778;-62
2024/04/22 01:55:48;;;;;;;1.70;1.40;;;23.40;47.10;;;;;;6578977;26;78971;-62
2024/04/22 01:58:51;;;;;;;2.80;1.60;;;23.40;46.80;;;;;;6622222;26;80000;-61
2024/04/22 02:01:51;;;;;;;1.77;1.48;;;23.40;46.80;;;;;;6600476;26;80216;-61
2024/04/22 02:04:52;;;;;;;2.30;1.60;;;23.40;46.70;;;;;;6587664;26;80220;-61
2024/04/22 02:07:52;;;;;;;1.02;0.98;;;23.40;46.70;;;;;;6553761;26;79940;-62
2024/04/22 02:10:53;;;;;;;2.67;1.40;;;23.40;46.80;;;;;;6593243;26;78818;-61
2024/04/22 02:13:53;;;;;;;3.38;1.88;;;23.40;46.70;;;;;;6585600;26;82038;-61
2024/04/22 02:16:54;;;;;;;2.08;1.38;;;23.40;46.70;;;;;;6586199;26;80416;-61
2024/04/22 02:19:55;;;;;;;1.85;1.42;;;23.40;46.90;;;;;;6615065;26;79652;-62
2024/04/22 02:22:55;;;;;;;1.35;1.25;;;23.40;47.10;;;;;;6581393;26;78894;-63
2024/04/22 02:25:56;;;;;;;2.22;1.67;;;23.30;47.10;;;;;;6561419;26;80061;-62
2024/04/22 02:28:56;;;;;;;1.40;1.20;;;23.40;47.00;;;;;;6574543;26;78978;-62
2024/04/22 02:31:57;;;;;;;1.73;1.20;;;23.30;46.90;;;;;;6570773;26;80067;-62
2024/04/22 02:34:57;;;;;;;1.60;1.50;;;23.40;47.00;;;;;;6600857;26;79172;-59
2024/04/22 02:37:58;;;;;;;1.90;1.30;;;23.30;46.80;;;;;;6571634;26;79381;-58
2024/04/22 02:40:58;;;;;;;2.10;1.40;;;23.30;47.00;;;;;;6571443;26;80073;-59
2024/04/22 02:43:59;;;;;;;1.63;1.10;;;23.30;46.90;;;;;;6582730;26;79110;-59
2024/04/22 02:46:59;;;;;;;1.40;1.02;;;23.40;46.90;;;;;;6605389;26;79769;-60
2024/04/22 02:50:00;;;;;;;2.60;1.55;;;23.30;46.90;;;;;;6626437;26;82478;-59
2024/04/22 02:53:00;;;;;;;1.92;1.45;;;23.40;47.00;;;;;;6611509;26;79383;-66
2024/04/22 02:56:01;;;;;;;2.85;1.27;;;23.40;46.60;;;;;;6616963;26;79465;-66
2024/04/22 02:59:01;;;;;;;2.88;1.65;;;23.30;46.70;;;;;;6625218;26;80807;-66
2024/04/22 03:02:02;;;;;;;2.35;1.50;;;23.30;46.60;;;;;;6594462;26;79429;-68
2024/04/22 03:05:02;;;;;;;2.42;1.50;;;23.30;46.70;;;;;;6561810;26;81768;-66
2024/04/22 03:08:03;;;;;;;2.10;1.63;;;23.30;46.80;;;;;;6575689;26;80180;-63
2024/04/22 03:11:03;;;;;;;2.13;1.40;;;23.40;46.90;;;;;;6576790;26;78697;-62
2024/04/22 03:14:04;;;;;;;1.75;1.50;;;23.30;46.80;;;;;;6574750;26;79531;-61
2024/04/22 03:17:04;;;;;;;2.20;1.60;;;23.30;46.50;;;;;;6605001;26;80403;-62
2024/04/22 03:20:05;;;;;;;1.80;1.33;;;23.30;46.40;;;;;;6599114;26;80542;-62
2024/04/22 03:23:05;;;;;;;2.10;1.50;;;23.30;46.20;;;;;;6575052;26;78923;-62
2024/04/22 03:26:06;;;;;;;2.47;1.65;;;23.30;46.30;;;;;;6563630;26;80000;-61
2024/04/22 03:29:06;;;;;;;1.58;1.45;;;23.30;46.30;;;;;;6585532;26;79240;-63
2024/04/22 03:32:07;;;;;;;2.88;1.60;;;23.20;46.30;;;;;;6603366;26;80144;-62
2024/04/22 03:35:07;;;;;;;1.98;1.50;;;23.20;46.10;;;;;;6626927;26;78869;-63
2024/04/22 03:38:08;;;;;;;2.78;1.77;;;23.20;46.00;;;;;;6554477;26;79331;-63
2024/04/22 03:41:08;;;;;;;2.50;1.40;;;23.20;46.10;;;;;;6575956;26;79106;-62
2024/04/22 03:44:09;;;;;;;2.83;1.70;;;23.20;45.90;;;;;;6539567;26;79270;-62
2024/04/22 03:50:29;;;;;;;2.67;1.50;;;23.20;45.70;;;;;;6540292;26;84967;-64
2024/04/22 03:53:29;;;;;;;3.00;1.67;;;23.20;45.70;;;;;;6541860;26;78846;-66
2024/04/22 03:56:30;;;;;;;1.92;1.50;;;23.20;46.00;;;;;;6539855;26;79182;-61
2024/04/22 03:59:31;;;;;;;2.22;1.38;;;23.20;45.80;;;;;;6541606;26;84969;-64
2024/04/22 04:02:32;;;;;;;1.55;1.35;;;23.20;45.90;;;;;;6560811;26;80442;-62
2024/04/22 04:05:33;;;;;;;2.53;1.60;;;23.20;46.10;;;;;;6574169;26;82605;-64
2024/04/22 04:08:33;;;;;;;4.95;1.70;;;23.20;46.40;;;;;;6584501;26;80916;-63
2024/04/22 04:11:36;;;;;;;1.65;1.27;;;23.20;46.20;;;;;;6612089;26;80151;-65
2024/04/22 04:14:37;;;;;;;3.75;1.88;;;23.20;46.20;;;;;;6567547;26;89657;-64
2024/04/22 04:17:37;;;;;;;3.78;1.33;;;23.20;46.50;;;;;;6560749;26;79632;-61
2024/04/22 04:20:38;;;;;;;3.17;1.27;;;23.30;47.30;;;;;;6563239;26;80421;-62
2024/04/22 04:23:38;;;;;;;3.17;1.60;;;23.30;47.40;;;;;;6561429;26;79576;-69
2024/04/22 04:26:39;;;;;;;2.40;1.70;;;23.30;47.40;;;;;;6545543;26;79357;-70
2024/04/22 04:29:39;;;;;;;2.42;1.70;;;23.30;47.80;;;;;;6560560;26;79537;-68
2024/04/22 04:32:40;;;;;;;7.03;1.80;;;23.30;47.90;;;;;;6582147;26;79105;-67
2024/04/22 04:35:43;;;;;;;4.38;1.70;;;23.30;48.20;;;;;;6610270;26;79999;-66
2024/04/22 04:38:43;;;;;;;2.97;1.70;;;23.30;48.40;;;;;;6586093;26;81088;-64
2024/04/22 04:41:44;;;;;;;2.35;1.58;;;23.30;47.90;;;;;;6547112;26;79157;-65
2024/04/22 04:44:44;;;;;;;2.28;1.60;;;23.30;47.70;;;;;;6553178;26;80919;-69
2024/04/22 04:47:46;;;;;;;7.78;1.27;;;23.30;47.80;;;;;;6564116;26;79979;-65
2024/04/22 04:50:47;;;;;;;18.92;2.38;;;23.30;47.90;;;;;;6555809;26;79942;-63
2024/04/22 04:53:48;;;;;;;10.02;2.03;;;23.30;48.00;;;;;;6552573;26;79020;-65
2024/04/22 04:56:48;;;;;;;10.27;2.05;;;23.30;48.20;;;;;;6552510;26;79424;-63
2024/04/22 04:59:50;;;;;;;15.20;2.05;;;23.30;48.00;;;;;;6577624;26;80822;-61
2024/04/22 05:02:50;;;;;;;4.45;1.70;;;23.30;47.70;;;;;;6566496;26;79110;-64
2024/04/22 05:05:51;;;;;;;7.32;1.70;;;23.30;47.70;;;;;;6571761;26;80312;-65
2024/04/22 05:08:51;;;;;;;4.20;1.92;;;23.30;47.30;;;;;;6588904;26;78822;-66
2024/04/22 05:11:51;;;;;;;4.13;1.60;;;23.30;47.20;;;;;;6572981;26;81896;-67
2024/04/22 05:14:52;;;;;;;7.80;1.95;;;23.30;47.00;;;;;;6593420;26;79177;-66
2024/04/22 05:17:52;;;;;;;4.53;1.75;;;23.30;46.80;;;;;;6569381;26;80788;-66
2024/04/22 05:20:53;;;;;;;7.20;1.80;;;23.30;46.70;;;;;;6570538;26;81780;-65
2024/04/22 05:23:55;;;;;;;10.65;1.95;;;23.30;46.50;;;;;;6549530;26;82808;-70
2024/04/22 05:26:55;;;;;;;3.38;1.65;;;23.20;46.40;;;;;;6586773;26;80579;-65
2024/04/22 05:29:55;;;;;;;12.32;2.17;;;23.20;46.50;;;;;;6566691;26;79792;-70
2024/04/22 05:33:03;;;;;;;3.30;1.80;;;23.20;46.70;;;;;;6587743;26;79326;-69
2024/04/22 05:36:11;;;;;;;4.63;2.13;;;23.30;46.60;;;;;;6589057;26;79535;-75
2024/04/22 05:39:12;;;;;;;3.85;1.80;;;23.20;46.30;;;;;;6578404;26;85573;-67
2024/04/22 05:42:12;;;;;;;6.38;1.85;;;23.20;46.40;;;;;;6547172;26;78556;-70
2024/04/22 05:45:13;;;;;;;7.43;2.30;;;23.20;46.30;;;;;;6539463;26;80406;-69
2024/04/22 05:48:13;;;;;;;9.32;2.13;;;23.30;46.30;;;;;;6550559;26;79380;-71
2024/04/22 05:51:14;;;;;;;8.90;2.20;;;23.30;46.10;;;;;;6539322;26;80050;-70
2024/04/22 05:54:16;;;;;;;3.78;1.85;;;23.20;46.00;;;;;;6573059;26;78859;-70
2024/04/22 05:57:18;;;;;;;3.20;1.88;;;23.20;46.10;;;;;;6556667;26;81561;-70
2024/04/22 06:00:19;;;;;;;3.10;1.73;;;23.20;46.00;;;;;;6566557;26;84001;-72
2024/04/22 06:03:19;;;;;;;5.00;2.40;;;23.20;45.90;;;;;;6582900;26;79936;-71
2024/04/22 06:06:19;;;;;;;4.80;2.03;;;23.20;45.80;;;;;;6590886;26;83732;-71
2024/04/22 06:09:22;;;;;;;3.45;1.90;;;23.20;45.70;;;;;;6584179;26;79978;-69
2024/04/22 06:12:23;;;;;;;2.97;1.60;;;23.20;45.70;;;;;;6574376;26;78793;-70
2024/04/22 06:15:23;;;;;;;5.00;2.10;;;23.20;45.60;;;;;;6554238;26;80237;-63
2024/04/22 06:18:24;;;;;;;9.00;2.55;;;23.20;45.60;;;;;;6568879;26;80990;-64
2024/04/22 06:21:24;;;;;;;5.47;1.70;;;23.20;45.50;;;;;;6565301;26;80066;-64
2024/04/22 06:24:25;;;;;;;3.78;1.75;;;23.20;45.40;;;;;;6573118;26;80600;-63
2024/04/22 06:27:25;;;;;;;4.05;2.20;;;23.20;45.40;;;;;;6598368;26;79165;-63
2024/04/22 06:30:25;;;;;;;2.72;1.70;;;23.20;45.30;;;;;;6579710;26;79047;-62
2024/04/22 06:33:26;;;;;;;4.75;2.10;;;23.20;45.20;;;;;;6557349;26;79955;-60
2024/04/22 06:36:26;;;;;;;5.30;1.98;;;23.20;45.20;;;;;;6578011;26;78962;-59
2024/04/22 06:39:27;;;;;;;7.13;2.05;;;23.20;45.10;;;;;;6583697;26;79115;-59
2024/04/22 06:42:29;;;;;;;4.38;1.83;;;23.20;45.10;;;;;;6600222;26;79241;-60
2024/04/22 06:45:29;;;;;;;4.50;1.80;;;23.20;45.10;;;;;;6578018;26;78805;-61
2024/04/22 06:48:29;;;;;;;5.10;1.80;;;23.20;45.00;;;;;;6545223;26;79283;-60
2024/04/22 06:51:30;;;;;;;2.20;1.67;;;23.20;45.00;;;;;;6546008;26;88333;-59
2024/04/22 06:54:30;;;;;;;2.83;1.77;;;23.20;44.90;;;;;;6551839;26;83543;-60
2024/04/22 06:57:31;;;;;;;3.38;1.75;;;23.20;45.00;;;;;;6570868;26;86068;-60
2024/04/22 07:00:31;;;;;;;3.45;2.13;;;23.20;45.00;;;;;;6537002;26;81561;-59
2024/04/22 07:03:32;;;;;;;3.50;2.08;;;23.20;45.10;;;;;;6552350;26;82637;-59
2024/04/22 07:06:32;;;;;;;2.30;1.58;;;23.20;44.90;;;;;;6548823;26;87498;-61
2024/04/22 07:09:33;;;;;;;10.00;2.17;;;23.20;44.80;;;;;;6565096;26;82603;-64
2024/04/22 07:12:33;;;;;;;3.75;1.60;;;23.30;45.20;;;;;;6575115;26;80969;-63
2024/04/22 07:15:34;;;;;;;3.30;1.88;;;23.30;44.80;;;;;;6578081;26;82276;-63
2024/04/22 07:18:34;;;;;;;2.85;1.70;;;23.30;44.80;;;;;;6570891;26;78946;-63
2024/04/22 07:21:35;;;;;;;5.40;1.85;;;23.30;44.90;;;;;;6544973;26;79680;-63
2024/04/22 07:24:35;;;;;;;2.28;1.52;;;23.20;45.00;;;;;;6572103;26;82807;-64
2024/04/22 07:27:36;;;;;;;2.75;1.65;;;23.20;44.90;;;;;;6555351;26;78783;-60
2024/04/22 07:30:36;;;;;;;3.28;1.92;;;23.20;44.90;;;;;;6561325;26;80369;-60
2024/04/22 07:33:37;;;;;;;2.55;1.80;;;23.20;44.80;;;;;;6582836;26;87026;-60
2024/04/22 07:36:37;;;;;;;2.70;1.67;;;23.20;44.90;;;;;;6562728;26;79661;-60
2024/04/22 07:39:38;;;;;;;1.77;1.50;;;23.20;44.80;;;;;;6581686;26;83355;-60
2024/04/22 07:42:38;;;;;;;3.90;1.90;;;23.30;44.80;;;;;;6585553;26;80310;-60
2024/04/22 07:45:39;;;;;;;4.32;1.80;;;23.20;44.80;;;;;;6608281;26;79408;-69
2024/04/22 07:48:39;;;;;;;2.78;1.65;;;23.30;44.70;;;;;;6585837;26;79923;-70
2024/04/22 07:51:40;;;;;;;4.22;2.00;;;23.30;44.70;;;;;;6589293;26;79062;-71
2024/04/22 07:54:40;;;;;;;3.75;1.75;;;23.20;44.70;;;;;;6604849;26;79109;-70
2024/04/22 07:57:41;;;;;;;3.47;1.95;;;23.20;44.70;;;;;;6595930;26;79304;-70
2024/04/22 08:00:41;;;;;;;2.92;1.80;;;23.20;44.80;;;;;;6543069;26;84472;-68
2024/04/22 08:03:42;;;;;;;4.85;2.10;;;23.30;44.80;;;;;;6577910;26;80114;-69
2024/04/22 08:06:42;;;;;;;2.53;2.00;;;23.30;44.70;;;;;;6593692;26;79949;-69
2024/04/22 08:09:43;;;;;;;2.35;1.83;;;23.20;44.50;;;;;;6598140;26;80211;-70
2024/04/22 08:12:43;;;;;;;3.30;2.03;;;23.30;44.50;;;;;;6579056;26;80320;-70
2024/04/22 08:15:44;;;;;;;4.72;2.67;;;23.30;44.50;;;;;;6560220;26;78651;-70
2024/04/22 08:18:44;;;;;;;3.03;2.17;;;23.30;44.60;;;;;;6562777;26;80747;-68
2024/04/22 08:21:45;;;;;;;3.10;1.80;;;23.30;44.60;;;;;;6570215;26;84492;-67
2024/04/22 08:24:46;;;;;;;5.68;1.90;;;23.30;44.50;;;;;;6564625;26;80245;-69
2024/04/22 08:27:46;;;;;;;3.20;1.90;;;23.30;44.40;;;;;;6580028;26;79862;-68
2024/04/22 08:30:47;;;;;;;3.00;2.28;;;23.20;44.90;;;;;;6591741;26;79160;-67
2024/04/22 08:33:47;;;;;;;2.95;2.00;;;23.30;44.30;;;;;;6574212;26;83452;-67
2024/04/22 08:36:47;;;;;;;5.47;2.22;;;23.20;44.20;;;;;;6597688;26;80680;-68
2024/04/22 08:39:48;;;;;;;3.45;2.15;;;23.30;44.30;;;;;;6589051;26;78862;-67
2024/04/22 08:42:49;;;;;;;3.28;2.00;;;23.30;44.20;;;;;;6580151;26;79406;-68
2024/04/22 08:45:49;;;;;;;2.35;2.10;;;23.30;44.10;;;;;;6578596;26;79201;-67
2024/04/22 08:48:50;;;;;;;4.53;2.45;;;23.30;44.10;;;;;;6538453;26;80400;-68
2024/04/22 08:51:55;;;;;;;3.35;1.88;;;23.30;44.20;;;;;;6568086;26;84709;-68
2024/04/22 08:54:56;;;;;;;5.55;2.70;;;23.30;44.50;;;;;;6580731;26;82155;-70
2024/04/22 08:57:56;;;;;;;4.38;2.85;;;23.30;43.10;;;;;;6573548;26;79584;-71
2024/04/22 09:00:57;;;;;;;4.60;2.92;;;23.30;43.20;;;;;;6579714;26;79425;-67
2024/04/22 09:03:58;;;;;;;6.47;2.75;;;23.30;43.30;;;;;;6599075;26;79402;-67
2024/04/22 09:06:58;;;;;;;5.25;2.03;;;23.40;43.20;;;;;;6550624;26;81337;-68
2024/04/22 09:09:59;;;;;;;4.07;2.42;;;23.40;43.10;;;;;;6572007;26;84479;-70
2024/04/22 09:12:59;;;;;;;4.07;2.50;;;23.50;43.20;;;;;;6579301;26;79705;-72
2024/04/22 09:16:01;;;;;;;4.05;2.30;;;23.50;43.10;;;;;;6598281;26;79254;-68
2024/04/22 09:19:02;;;;;;;4.00;2.25;;;23.50;43.00;;;;;;6594864;26;86720;-70
2024/04/22 09:22:02;;;;;;;3.33;2.20;;;23.60;42.90;;;;;;6599220;26;78963;-66
2024/04/22 09:25:03;;;;;;;6.88;2.15;;;23.60;42.90;;;;;;6574716;26;78996;-68
2024/04/22 09:28:03;;;;;;;3.42;2.17;;;23.60;42.90;;;;;;6588722;26;80187;-70
2024/04/22 09:31:04;;;;;;;3.33;2.05;;;23.60;42.80;;;;;;6557067;26;79059;-69
2024/04/22 09:34:04;;;;;;;3.55;2.10;;;23.60;42.80;;;;;;6560025;26;80913;-70
2024/04/22 09:37:05;;;;;;;2.72;2.10;;;23.60;42.90;;;;;;6543305;26;82298;-67
2024/04/22 09:40:05;;;;;;;4.22;2.50;;;23.60;42.90;;;;;;6580247;26;78803;-66
2024/04/22 09:43:06;;;;;;;4.78;2.50;;;23.60;42.80;;;;;;6563675;26;82546;-71
2024/04/22 09:46:06;;;;;;;4.97;2.88;;;23.60;42.70;;;;;;6543284;26;79816;-68
2024/04/22 09:49:07;;;;;;;4.97;2.50;;;23.60;42.70;;;;;;6561305;26;83242;-69
2024/04/22 09:52:07;;;;;;;4.78;2.13;;;23.60;42.60;;;;;;6570090;26;79564;-70
2024/04/22 09:55:08;;;;;;;3.03;2.42;;;23.50;42.60;;;;;;6551040;26;79470;-69
2024/04/22 09:58:09;;;;;;;3.40;2.03;;;23.50;42.60;;;;;;6525900;26;79431;-69
2024/04/22 10:01:10;;;;;;;2.65;1.90;;;23.50;42.60;;;;;;6569928;26;80545;-69
2024/04/22 10:04:12;;;;;;;4.88;2.58;;;23.50;42.60;;;;;;6557585;26;80079;-71
2024/04/22 10:07:13;;;;;;;2.55;2.00;;;23.50;42.60;;;;;;6574571;26;89817;-67
2024/04/22 10:10:13;;;;;;;3.33;2.15;;;23.50;42.90;;;;;;6583816;26;79090;-67
2024/04/22 10:13:14;;;;;;;3.45;2.40;;;23.50;42.70;;;;;;6563508;26;81912;-69
2024/04/22 10:16:14;;;;;;;4.95;2.58;;;23.50;42.60;;;;;;6569334;26;86895;-66
2024/04/22 10:19:15;;;;;;;3.70;2.17;;;23.50;42.50;;;;;;6573034;26;80215;-66
2024/04/22 10:22:15;;;;;;;3.17;2.60;;;23.50;42.50;;;;;;6565246;26;79127;-68
2024/04/22 10:25:16;;;;;;;5.00;2.55;;;23.50;42.80;;;;;;6553124;26;79365;-67
2024/04/22 10:28:16;;;;;;;4.50;2.60;;;23.40;42.80;;;;;;6581564;26;78962;-67
2024/04/22 10:31:17;;;;;;;3.38;2.42;;;23.50;42.90;;;;;;6567608;26;81892;-65
2024/04/22 10:34:17;;;;;;;4.85;2.35;;;23.50;42.80;;;;;;6541579;26;83181;-64
2024/04/22 10:37:18;;;;;;;5.35;2.83;;;23.50;42.90;;;;;;6555066;26;81138;-65
2024/04/22 10:40:18;;;;;;;3.10;2.33;;;23.40;42.70;;;;;;6576286;26;79581;-65
2024/04/22 10:43:19;;;;;;;4.50;2.30;;;23.50;42.60;;;;;;6552625;26;79616;-65
2024/04/22 10:46:19;;;;;;;3.78;2.53;;;23.50;42.60;;;;;;6554383;26;81280;-65
2024/04/22 10:49:20;;;;;;;2.83;2.20;;;23.50;42.60;;;;;;6571755;26;87570;-64
2024/04/22 10:52:20;;;;;;;3.90;2.22;;;23.50;42.50;;;;;;6558611;26;81612;-66
2024/04/22 10:55:21;;;;;;;4.05;2.20;;;23.50;42.50;;;;;;6560275;26;78982;-66
2024/04/22 10:58:21;;;;;;;3.65;2.40;;;23.50;42.40;;;;;;6565715;26;78948;-65
2024/04/22 11:01:22;;;;;;;2.92;2.22;;;23.50;42.40;;;;;;6547496;26;79546;-64
2024/04/22 11:04:23;;;;;;;4.30;2.20;;;23.50;42.30;;;;;;6550138;26;80672;-63
2024/04/22 11:07:26;;;;;;;4.32;2.30;;;23.50;42.30;;;;;;6560800;26;80270;-64
2024/04/22 11:10:27;;;;;;;3.70;2.60;;;23.50;42.30;;;;;;6547418;26;79862;-64
2024/04/22 11:13:28;;;;;;;4.90;2.47;;;23.50;42.30;;;;;;6557497;26;80390;-64
2024/04/22 11:16:29;;;;;;;4.45;2.10;;;23.50;42.20;;;;;;6560473;26;79270;-64
2024/04/22 11:19:29;;;;;;;3.60;2.03;;;23.50;42.20;;;;;;6553180;26;83749;-65
2024/04/22 11:22:30;;;;;;;2.53;2.13;;;23.50;42.20;;;;;;6577475;26;79276;-63
2024/04/22 11:25:30;;;;;;;3.50;2.20;;;23.50;42.10;;;;;;6571885;26;79332;-65
2024/04/22 11:28:31;;;;;;;2.83;2.10;;;23.40;42.20;;;;;;6573344;26;79641;-63
2024/04/22 11:31:31;;;;;;;4.00;2.15;;;23.50;43.00;;;;;;6553917;26;78843;-63
2024/04/22 11:34:32;;;;;;;3.05;2.10;;;23.50;42.20;;;;;;6588280;26;82214;-62
2024/04/22 11:37:32;;;;;;;5.00;2.17;;;23.50;42.10;;;;;;6568134;26;85673;-62
2024/04/22 11:40:33;;;;;;;2.50;2.10;;;23.50;42.30;;;;;;6567116;26;86336;-62
2024/04/22 11:43:33;;;;;;;3.47;2.08;;;23.50;42.50;;;;;;6558414;26;79443;-62
2024/04/22 11:46:34;;;;;;;8.00;2.35;;;23.50;42.70;;;;;;6572887;26;83844;-62
2024/04/22 11:49:34;;;;;;;3.58;2.42;;;23.50;42.70;;;;;;6562183;26;81914;-62
2024/04/22 11:52:35;;;;;;;3.35;2.20;;;23.50;42.60;;;;;;6566229;26;78879;-62
2024/04/22 11:55:35;;;;;;;3.90;2.00;;;23.50;42.60;;;;;;6552429;26;81403;-64
2024/04/22 11:58:36;;;;;;;2.35;2.08;;;23.50;42.50;;;;;;6528071;26;83356;-63
2024/04/22 12:01:37;;;;;;;5.45;2.00;;;23.50;42.50;;;;;;6560247;26;87185;-62
2024/04/22 12:04:38;;;;;;;6.13;2.33;;;23.50;42.50;;;;;;6575816;26;79203;-62
2024/04/22 12:07:42;;;;;;;5.00;2.30;;;23.50;42.50;;;;;;6600608;26;81306;-62
2024/04/22 12:10:42;;;;;;;5.72;2.33;;;23.50;42.40;;;;;;6572375;26;84291;-62
2024/04/22 12:13:43;;;;;;;3.00;2.30;;;23.50;42.40;;;;;;6571679;26;80527;-63
2024/04/22 12:16:43;;;;;;;3.97;2.22;;;23.50;42.40;;;;;;6563482;26;79334;-62
2024/04/22 12:19:44;;;;;;;3.53;2.00;;;23.50;42.40;;;;;;6567603;26;79066;-63
2024/04/22 12:22:45;;;;;;;3.67;2.05;;;23.50;42.40;;;;;;6560902;26;87511;-71
2024/04/22 12:25:45;;;;;;;5.32;2.08;;;23.50;42.40;;;;;;6566977;26;80463;-69
2024/04/22 12:28:46;;;;;;;2.42;1.80;;;23.50;42.40;;;;;;6597508;26;82036;-70
2024/04/22 12:31:46;;;;;;;3.80;2.30;;;23.50;42.30;;;;;;6572238;26;82823;-71
2024/04/22 12:34:47;;;;;;;3.40;2.20;;;23.50;42.20;;;;;;6578153;26;79519;-69
2024/04/22 12:37:48;;;;;;;2.38;1.70;;;23.50;42.20;;;;;;6605079;26;80611;-69
2024/04/22 12:40:48;;;;;;;4.07;2.08;;;23.50;42.20;;;;;;6578360;26;79360;-69
2024/04/22 12:43:49;;;;;;;6.97;2.28;;;23.50;42.20;;;;;;6561565;26;79051;-69
2024/04/22 12:53:28;;;;;;;3.58;2.03;;;23.50;42.00;;;;;;6577224;26;79324;-71
2024/04/22 12:56:29;;;;;;;4.07;2.20;;;23.50;42.00;;;;;;6560993;26;81286;-70
2024/04/22 12:59:29;;;;;;;4.80;1.90;;;23.50;42.00;;;;;;6558363;26;79979;-68
2024/04/22 13:02:30;;;;;;;4.72;2.10;;;23.60;41.90;;;;;;6558026;26;80968;-68
2024/04/22 13:05:30;;;;;;;5.60;2.15;;;23.50;41.90;;;;;;6561282;26;83510;-69
2024/04/22 13:08:31;;;;;;;3.72;2.20;;;23.50;41.90;;;;;;6567236;26;86783;-66
2024/04/22 13:11:31;;;;;;;2.92;2.00;;;23.50;41.90;;;;;;6549181;26;83747;-69
2024/04/22 13:14:32;;;;;;;3.25;2.05;;;23.50;41.90;;;;;;6585599;26;80700;-66
2024/04/22 13:17:32;;;;;;;2.25;1.60;;;23.50;41.90;;;;;;6586878;26;83172;-62
2024/04/22 13:20:33;;;;;;;3.40;2.25;;;23.50;42.00;;;;;;6571840;26;79708;-62
2024/04/22 13:23:34;;;;;;;6.85;2.42;;;23.50;42.00;;;;;;6563880;26;78956;-61
2024/04/22 13:26:34;;;;;;;4.10;2.33;;;23.50;42.00;;;;;;6552550;26;84768;-60
2024/04/22 13:29:35;;;;;;;3.92;1.83;;;23.50;42.10;;;;;;6591118;26;80788;-61
2024/04/22 13:32:36;;;;;;;2.80;2.22;;;23.50;42.00;;;;;;6594676;26;78824;-61
2024/04/22 13:35:36;;;;;;;3.72;2.28;;;23.50;42.00;;;;;;6602809;26;79447;-62
2024/04/22 13:38:37;;;;;;;9.55;2.58;;;23.50;42.00;;;;;;6588047;26;79927;-62
2024/04/22 13:41:37;;;;;;;9.93;2.33;;;23.50;41.90;;;;;;6563725;26;80593;-62
2024/04/22 13:44:38;;;;;;;8.63;2.55;;;23.50;41.80;;;;;;6570321;26;80072;-62
2024/04/22 13:47:38;;;;;;;4.78;2.30;;;23.50;41.90;;;;;;6568480;26;86214;-64
2024/04/22 13:50:39;;;;;;;7.60;2.60;;;23.50;41.90;;;;;;6569596;26;80354;-61
2024/04/22 13:53:39;;;;;;;11.88;2.95;;;23.50;42.00;;;;;;6576171;26;80023;-60
2024/04/22 13:56:40;;;;;;;6.05;2.58;;;23.50;42.40;;;;;;6573604;26;79158;-63
2024/04/22 13:59:41;;;;;;;8.48;3.05;;;23.50;42.50;;;;;;6593412;26;79651;-63
2024/04/22 14:02:41;;;;;;;15.02;2.50;;;23.50;43.40;;;;;;6573235;26;82783;-62
2024/04/22 14:05:42;;;;;;;6.68;2.80;;;23.50;42.70;;;;;;6556438;26;79020;-62
2024/04/22 14:08:45;;;;;;;9.70;3.10;;;23.50;42.70;;;;;;6563672;26;82791;-61
2024/04/22 14:11:45;;;;;;;6.97;2.30;;;23.40;42.90;;;;;;6552552;26;80086;-65
2024/04/22 14:14:46;;;;;;;10.15;2.70;;;23.40;42.90;;;;;;6560085;26;80084;-59
2024/04/22 14:17:46;;;;;;;23.63;2.75;;;23.40;43.00;;;;;;6573154;26;79454;-55
2024/04/22 14:20:47;;;;;;;9.70;2.40;;;23.40;43.60;;;;;;6550496;26;80191;-59
2024/04/22 14:23:48;;;;;;;5.60;2.22;;;23.40;43.30;;;;;;6557072;26;82774;-58
2024/04/22 14:26:48;;;;;;;6.88;2.10;;;23.50;43.30;;;;;;6577160;26;82404;-59
2024/04/22 14:29:49;;;;;;;5.18;2.40;;;23.50;43.60;;;;;;6588903;26;80316;-62
2024/04/22 14:32:49;;;;;;;6.10;2.30;;;23.50;43.40;;;;;;6585376;26;84659;-63
2024/04/22 14:35:50;;;;;;;9.23;2.50;;;23.50;43.30;;;;;;6574544;26;81657;-63
2024/04/22 14:38:50;;;;;;;5.95;2.17;;;23.50;43.00;;;;;;6576934;26;79101;-64
2024/04/22 14:41:51;;;;;;;12.63;3.03;;;23.50;43.10;;;;;;6570741;26;78960;-64
2024/04/22 14:44:51;;;;;;;10.23;2.33;;;23.50;43.00;;;;;;6553168;26;79551;-62
2024/04/22 14:47:52;;;;;;;16.85;2.85;;;23.50;43.50;;;;;;6573555;26;80267;-63
2024/04/22 14:50:52;;;;;;;8.30;2.47;;;23.60;43.60;;;;;;6597120;26;82339;-69
2024/04/22 14:53:54;;;;;;;9.32;2.28;;;23.50;43.70;;;;;;6581317;26;81518;-68
2024/04/22 14:56:54;;;;;;;10.65;2.80;;;23.60;43.70;;;;;;6567334;26;78832;-62
2024/04/22 14:59:55;;;;;;;5.95;2.30;;;23.60;43.70;;;;;;6580148;26;79088;-64
2024/04/22 15:02:55;;;;;;;11.88;2.60;;;23.60;44.10;;;;;;6599480;26;79079;-65
2024/04/22 15:05:56;;;;;;;4.60;2.60;;;23.70;44.20;;;;;;6576780;26;79014;-67
2024/04/22 15:08:56;;;;;;;4.97;2.60;;;23.70;44.50;;;;;;6563799;26;79010;-59
2024/04/22 15:11:57;;;;;;;9.15;2.92;;;23.70;44.50;;;;;;6568196;26;80708;-59
2024/04/22 15:14:58;;;;;;;11.20;2.25;;;23.70;44.70;;;;;;6587747;26;80995;-58
2024/04/22 15:17:58;;;;;;;4.57;2.35;;;23.70;44.80;;;;;;6583229;26;79859;-59
2024/04/22 15:20:59;;;;;;;8.57;2.53;;;23.70;45.00;;;;;;6577135;26;80470;-58
2024/04/22 15:23:59;;;;;;;34.42;15.00;;;23.70;45.10;;;;;;6584986;26;80539;-60
2024/04/22 15:27:00;;;;;;;49.95;20.70;;;23.70;45.40;;;;;;6570156;26;82212;-63
2024/04/22 15:30:02;;;;;;;67.70;32.30;;;23.80;45.70;;;;;;6578394;26;81477;-66
2024/04/22 15:33:03;;;;;;;65.97;30.50;;;23.80;45.80;;;;;;6581562;26;83002;-71
2024/04/22 15:36:03;;;;;;;88.47;37.55;;;23.80;45.90;;;;;;6593443;26;81680;-64
2024/04/22 15:39:07;;;;;;;95.97;41.38;;;23.80;45.90;;;;;;6570707;26;81716;-64
2024/04/22 15:42:07;;;;;;;131.23;65.05;;;23.80;45.80;;;;;;6559141;26;83938;-66
2024/04/22 15:45:08;;;;;;;132.57;66.72;;;23.80;45.80;;;;;;6578270;26;81915;-61
2024/04/22 15:48:08;;;;;;;169.68;80.05;;;23.80;46.00;;;;;;6561175;26;82585;-62